PWSweather.com
Personal Weather Stations
Station Observations
ISTOCKPO4
Cheadle HulmeGB SK8 6NZ

Cheadle HulmeGB SK8 6NZ

Lat: 53.363783, Lon: -2.1948438

Elevation: 261

Station Type: Davis VP2 with Daytime FARS

http://www.cheadlehulmeweather.co.uk

Latest ConditionsUpdated 10:30:03 PM GMT Thursday, Dec 14, 2017
Currently Today's Max Today's Min Today's Average
Temperature 37.8°F3.2°C 43.2°F6.2°C 36.7°F2.6°C 39.1°F3.9°C
Dew Point 36.5°F2.5°C 37.9°F3.3°C 34.6°F1.4°C 36.7°F2.6°C
Winds 1.0 mph W1.6 kmh W 10.0 mph W16.1 kmh W - 5.6 mph 9.0 kmh
Wind Gusts 4.0 mph6.4 kmh 21.0 mph33.8 kmh - -
Humidity 95% 95% 79% 91%
Pressure 29.14 in986.8 mb 29.18 in988.1 mb 29.05 in983.7 mb -
Precipitation - 0.50 in12.7 mm - -
Hour Temp Dew Point Humidity Winds Wind Gusts Pressure Precip Precip Rate Daily Precip Total
10:30 PM 37.8°F3.2°C 36.5°F2.5°C 95% 1.0 mph W1.6 kmh W 4.0 mph6.4 kmh 29.14 in986.8 mb 0.04 in1.0 mm 0.08 in2.0 mm 0.50 in12.7 mm
10:15 PM 37.6°F3.1°C 36.3°F2.4°C 95% 3.0 mph WNW4.8 kmh WNW 6.0 mph9.7 kmh 29.13 in986.5 mb 0.02 in0.5 mm 0.04 in1.0 mm 0.48 in12.2 mm
10:00 PM 37.2°F2.9°C 35.9°F2.2°C 95% 3.0 mph SSW4.8 kmh SSW 10.0 mph16.1 kmh 29.13 in986.5 mb 0.01 in0.3 mm 0.00 in0.0 mm 0.47 in11.9 mm
09:45 PM 37.2°F2.9°C 35.9°F2.2°C 95% 5.0 mph S8.0 kmh S 8.0 mph12.9 kmh 29.12 in986.1 mb 0.03 in0.8 mm 0.00 in0.0 mm 0.46 in11.7 mm
09:30 PM 37.4°F3.0°C 35.8°F2.1°C 94% 4.0 mph S6.4 kmh S 7.0 mph11.3 kmh 29.13 in986.5 mb 0.06 in1.5 mm 0.00 in0.0 mm 0.46 in11.7 mm
09:15 PM 37.4°F3.0°C 35.8°F2.1°C 94% 1.0 mph SW1.6 kmh SW 3.0 mph4.8 kmh 29.13 in986.5 mb 0.06 in1.5 mm 0.00 in0.0 mm 0.46 in11.7 mm
09:00 PM 37.6°F3.1°C 36.3°F2.4°C 95% 3.0 mph NW4.8 kmh NW 8.0 mph12.9 kmh 29.13 in986.5 mb 0.06 in1.5 mm 0.04 in1.0 mm 0.46 in11.7 mm
08:45 PM 38.1°F3.4°C 36.8°F2.7°C 95% 5.0 mph NW8.0 kmh NW 15.0 mph24.1 kmh 29.14 in986.8 mb 0.03 in0.8 mm 0.12 in3.0 mm 0.43 in10.9 mm
08:30 PM 38.1°F3.4°C 36.8°F2.7°C 95% 3.0 mph S4.8 kmh S 4.0 mph6.4 kmh 29.12 in986.1 mb 0.00 in0.0 mm 0.00 in0.0 mm 0.40 in10.2 mm
08:15 PM 37.9°F3.3°C 36.6°F2.6°C 95% 1.0 mph S1.6 kmh S 3.0 mph4.8 kmh 29.12 in986.1 mb 0.00 in0.0 mm 0.00 in0.0 mm 0.40 in10.2 mm
08:00 PM 37.9°F3.3°C 36.6°F2.6°C 95% 2.0 mph S3.2 kmh S 4.0 mph6.4 kmh 29.11 in985.8 mb 0.00 in0.0 mm 0.00 in0.0 mm 0.40 in10.2 mm
07:45 PM 37.8°F3.2°C 36.5°F2.5°C 95% 2.0 mph SSW3.2 kmh SSW 6.0 mph9.7 kmh 29.12 in986.1 mb 0.00 in0.0 mm 0.00 in0.0 mm 0.40 in10.2 mm
07:30 PM 37.9°F3.3°C 36.6°F2.6°C 95% 2.0 mph SW3.2 kmh SW 10.0 mph16.1 kmh 29.11 in985.8 mb 0.00 in0.0 mm 0.00 in0.0 mm 0.40 in10.2 mm
07:15 PM 38.5°F3.6°C 37.2°F2.9°C 95% 4.0 mph SW6.4 kmh SW 9.0 mph14.5 kmh 29.11 in985.8 mb 0.00 in0.0 mm 0.00 in0.0 mm 0.40 in10.2 mm
07:00 PM 38.5°F3.6°C 37.2°F2.9°C 95% 4.0 mph SSW6.4 kmh SSW 10.0 mph16.1 kmh 29.11 in985.8 mb 0.00 in0.0 mm 0.00 in0.0 mm 0.40 in10.2 mm
06:45 PM 38.3°F3.5°C 36.7°F2.6°C 94% 3.0 mph SW4.8 kmh SW 7.0 mph11.3 kmh 29.10 in985.4 mb 0.00 in0.0 mm 0.00 in0.0 mm 0.40 in10.2 mm
06:30 PM 38.3°F3.5°C 36.7°F2.6°C 94% 4.0 mph SSW6.4 kmh SSW 8.0 mph12.9 kmh 29.09 in985.1 mb 0.00 in0.0 mm 0.00 in0.0 mm 0.40 in10.2 mm
06:15 PM 38.5°F3.6°C 36.9°F2.7°C 94% 4.0 mph SW6.4 kmh SW 9.0 mph14.5 kmh 29.09 in985.1 mb 0.03 in0.8 mm 0.00 in0.0 mm 0.40 in10.2 mm
06:00 PM 39.0°F3.9°C 37.4°F3.0°C 94% 3.0 mph SW4.8 kmh SW 8.0 mph12.9 kmh 29.09 in985.1 mb 0.10 in2.5 mm 0.00 in0.0 mm 0.40 in10.2 mm
05:45 PM 39.0°F3.9°C 37.4°F3.0°C 94% 4.0 mph SW6.4 kmh SW 10.0 mph16.1 kmh 29.08 in984.8 mb 0.11 in2.8 mm 0.00 in0.0 mm 0.40 in10.2 mm
05:30 PM 39.2°F4.0°C 37.3°F2.9°C 93% 7.0 mph W11.3 kmh W 21.0 mph33.8 kmh 29.08 in984.8 mb 0.11 in2.8 mm 0.16 in4.1 mm 0.40 in10.2 mm
05:15 PM 40.3°F4.6°C 37.9°F3.3°C 91% 7.0 mph WSW11.3 kmh WSW 20.0 mph32.2 kmh 29.07 in984.4 mb 0.07 in1.8 mm 0.24 in6.1 mm 0.36 in9.1 mm
05:00 PM 41.0°F5.0°C 37.4°F3.0°C 87% 6.0 mph SW9.7 kmh SW 15.0 mph24.1 kmh 29.06 in984.1 mb 0.01 in0.3 mm 0.01 in0.3 mm 0.30 in7.6 mm
04:45 PM 41.2°F5.1°C 37.3°F2.9°C 86% 7.0 mph S11.3 kmh S 15.0 mph24.1 kmh 29.05 in983.7 mb 0.00 in0.0 mm 0.00 in0.0 mm 0.29 in7.4 mm
04:30 PM 41.2°F5.1°C 37.3°F2.9°C 86% 6.0 mph S9.7 kmh S 13.0 mph20.9 kmh 29.05 in983.7 mb 0.00 in0.0 mm 0.00 in0.0 mm 0.29 in7.4 mm
04:15 PM 41.4°F5.2°C 37.2°F2.9°C 85% 7.0 mph S11.3 kmh S 13.0 mph20.9 kmh 29.05 in983.7 mb 0.00 in0.0 mm 0.00 in0.0 mm 0.29 in7.4 mm
04:00 PM 41.4°F5.2°C 37.2°F2.9°C 85% 6.0 mph S9.7 kmh S 11.0 mph17.7 kmh 29.06 in984.1 mb 0.00 in0.0 mm 0.00 in0.0 mm 0.29 in7.4 mm
03:45 PM 41.4°F5.2°C 37.2°F2.9°C 85% 5.0 mph SSW8.0 kmh SSW 14.0 mph22.5 kmh 29.06 in984.1 mb 0.00 in0.0 mm 0.00 in0.0 mm 0.29 in7.4 mm
03:30 PM 41.4°F5.2°C 37.2°F2.9°C 85% 6.0 mph S9.7 kmh S 13.0 mph20.9 kmh 29.06 in984.1 mb 0.00 in0.0 mm 0.00 in0.0 mm 0.29 in7.4 mm
03:15 PM 41.5°F5.3°C 37.1°F2.8°C 84% 7.0 mph S11.3 kmh S 18.0 mph29.0 kmh 29.06 in984.1 mb 0.00 in0.0 mm 0.00 in0.0 mm 0.29 in7.4 mm
03:00 PM 41.7°F5.4°C 37.2°F2.9°C 84% 6.0 mph SSW9.7 kmh SSW 13.0 mph20.9 kmh 29.06 in984.1 mb 0.00 in0.0 mm 0.00 in0.0 mm 0.29 in7.4 mm
02:45 PM 41.9°F5.5°C 37.1°F2.8°C 83% 7.0 mph S11.3 kmh S 14.0 mph22.5 kmh 29.06 in984.1 mb 0.00 in0.0 mm 0.00 in0.0 mm 0.29 in7.4 mm
02:30 PM 42.1°F5.6°C 37.3°F2.9°C 83% 8.0 mph SSW12.9 kmh SSW 15.0 mph24.1 kmh 29.07 in984.4 mb 0.00 in0.0 mm 0.00 in0.0 mm 0.29 in7.4 mm
02:15 PM 42.4°F5.8°C 37.6°F3.1°C 83% 6.0 mph SW9.7 kmh SW 16.0 mph25.7 kmh 29.07 in984.4 mb 0.00 in0.0 mm 0.00 in0.0 mm 0.29 in7.4 mm
02:00 PM 42.4°F5.8°C 37.0°F2.8°C 81% 7.0 mph SW11.3 kmh SW 18.0 mph29.0 kmh 29.08 in984.8 mb 0.00 in0.0 mm 0.00 in0.0 mm 0.29 in7.4 mm
01:45 PM 42.6°F5.9°C 37.2°F2.9°C 81% 8.0 mph SW12.9 kmh SW 16.0 mph25.7 kmh 29.09 in985.1 mb 0.00 in0.0 mm 0.00 in0.0 mm 0.29 in7.4 mm
01:30 PM 43.2°F6.2°C 37.1°F2.8°C 79% 7.0 mph SW11.3 kmh SW 19.0 mph30.6 kmh 29.09 in985.1 mb 0.00 in0.0 mm 0.00 in0.0 mm 0.29 in7.4 mm
01:15 PM 43.0°F6.1°C 37.5°F3.1°C 81% 7.0 mph SW11.3 kmh SW 16.0 mph25.7 kmh 29.09 in985.1 mb 0.00 in0.0 mm 0.00 in0.0 mm 0.29 in7.4 mm
01:00 PM 42.6°F5.9°C 37.2°F2.9°C 81% 6.0 mph SW9.7 kmh SW 15.0 mph24.1 kmh 29.09 in985.1 mb 0.00 in0.0 mm 0.00 in0.0 mm 0.29 in7.4 mm
12:45 PM 42.4°F5.8°C 37.3°F2.9°C 82% 6.0 mph SW9.7 kmh SW 18.0 mph29.0 kmh 29.10 in985.4 mb 0.00 in0.0 mm 0.00 in0.0 mm 0.29 in7.4 mm
12:30 PM 41.9°F5.5°C 37.1°F2.8°C 83% 8.0 mph SW12.9 kmh SW 17.0 mph27.4 kmh 29.11 in985.8 mb 0.00 in0.0 mm 0.00 in0.0 mm 0.29 in7.4 mm
12:15 PM 41.4°F5.2°C 37.2°F2.9°C 85% 7.0 mph SW11.3 kmh SW 18.0 mph29.0 kmh 29.11 in985.8 mb 0.00 in0.0 mm 0.00 in0.0 mm 0.29 in7.4 mm
12:00 PM 41.2°F5.1°C 37.0°F2.8°C 85% 7.0 mph SW11.3 kmh SW 17.0 mph27.4 kmh 29.11 in985.8 mb 0.00 in0.0 mm 0.00 in0.0 mm 0.29 in7.4 mm
11:45 AM 40.8°F4.9°C 37.3°F2.9°C 87% 6.0 mph WSW9.7 kmh WSW 13.0 mph20.9 kmh 29.12 in986.1 mb 0.00 in0.0 mm 0.00 in0.0 mm 0.29 in7.4 mm
11:30 AM 40.5°F4.7°C 37.2°F2.9°C 88% 7.0 mph SW11.3 kmh SW 14.0 mph22.5 kmh 29.12 in986.1 mb 0.00 in0.0 mm 0.00 in0.0 mm 0.29 in7.4 mm
11:15 AM 40.1°F4.5°C 37.1°F2.8°C 89% 6.0 mph SW9.7 kmh SW 15.0 mph24.1 kmh 29.13 in986.5 mb 0.00 in0.0 mm 0.00 in0.0 mm 0.29 in7.4 mm
11:00 AM 39.7°F4.3°C 36.8°F2.7°C 89% 6.0 mph SSW9.7 kmh SSW 15.0 mph24.1 kmh 29.13 in986.5 mb 0.00 in0.0 mm 0.00 in0.0 mm 0.29 in7.4 mm
10:45 AM 39.6°F4.2°C 36.9°F2.7°C 90% 6.0 mph SSW9.7 kmh SSW 14.0 mph22.5 kmh 29.15 in987.1 mb 0.00 in0.0 mm 0.00 in0.0 mm 0.29 in7.4 mm
10:30 AM 39.4°F4.1°C 36.7°F2.6°C 90% 5.0 mph SW8.0 kmh SW 12.0 mph19.3 kmh 29.15 in987.1 mb 0.00 in0.0 mm 0.00 in0.0 mm 0.29 in7.4 mm
10:15 AM 39.2°F4.0°C 36.5°F2.5°C 90% 5.0 mph SW8.0 kmh SW 11.0 mph17.7 kmh 29.15 in987.1 mb 0.00 in0.0 mm 0.00 in0.0 mm 0.29 in7.4 mm
10:00 AM 39.0°F3.9°C 36.6°F2.6°C 91% 6.0 mph SW9.7 kmh SW 15.0 mph24.1 kmh 29.16 in987.5 mb 0.00 in0.0 mm 0.00 in0.0 mm 0.29 in7.4 mm
09:45 AM 38.7°F3.7°C 36.3°F2.4°C 91% 6.0 mph SW9.7 kmh SW 14.0 mph22.5 kmh 29.16 in987.5 mb 0.00 in0.0 mm 0.00 in0.0 mm 0.29 in7.4 mm
09:30 AM 38.3°F3.5°C 35.9°F2.2°C 91% 6.0 mph SW9.7 kmh SW 16.0 mph25.7 kmh 29.17 in987.8 mb 0.00 in0.0 mm 0.00 in0.0 mm 0.29 in7.4 mm
09:15 AM 38.1°F3.4°C 36.0°F2.2°C 92% 7.0 mph SSW11.3 kmh SSW 14.0 mph22.5 kmh 29.17 in987.8 mb 0.00 in0.0 mm 0.00 in0.0 mm 0.29 in7.4 mm
09:00 AM 38.1°F3.4°C 36.0°F2.2°C 92% 9.0 mph S14.5 kmh S 15.0 mph24.1 kmh 29.17 in987.8 mb 0.00 in0.0 mm 0.00 in0.0 mm 0.29 in7.4 mm
08:45 AM 38.1°F3.4°C 36.0°F2.2°C 92% 8.0 mph S12.9 kmh S 13.0 mph20.9 kmh 29.17 in987.8 mb 0.00 in0.0 mm 0.00 in0.0 mm 0.29 in7.4 mm
08:30 AM 38.1°F3.4°C 36.0°F2.2°C 92% 6.0 mph SSW9.7 kmh SSW 14.0 mph22.5 kmh 29.17 in987.8 mb 0.00 in0.0 mm 0.00 in0.0 mm 0.29 in7.4 mm
08:15 AM 37.9°F3.3°C 36.1°F2.3°C 93% 7.0 mph SSW11.3 kmh SSW 14.0 mph22.5 kmh 29.18 in988.1 mb 0.00 in0.0 mm 0.00 in0.0 mm 0.29 in7.4 mm
08:00 AM 37.9°F3.3°C 36.1°F2.3°C 93% 5.0 mph S8.0 kmh S 12.0 mph19.3 kmh 29.18 in988.1 mb 0.00 in0.0 mm 0.00 in0.0 mm 0.29 in7.4 mm
07:45 AM 38.1°F3.4°C 36.3°F2.4°C 93% 7.0 mph S11.3 kmh S 13.0 mph20.9 kmh 29.18 in988.1 mb 0.00 in0.0 mm 0.00 in0.0 mm 0.29 in7.4 mm
07:30 AM 37.9°F3.3°C 36.1°F2.3°C 93% 5.0 mph S8.0 kmh S 11.0 mph17.7 kmh 29.18 in988.1 mb 0.01 in0.3 mm 0.00 in0.0 mm 0.29 in7.4 mm
07:15 AM 37.9°F3.3°C 36.1°F2.3°C 93% 7.0 mph S11.3 kmh S 14.0 mph22.5 kmh 29.18 in988.1 mb 0.01 in0.3 mm 0.00 in0.0 mm 0.29 in7.4 mm
07:00 AM 38.1°F3.4°C 36.3°F2.4°C 93% 7.0 mph SSW11.3 kmh SSW 14.0 mph22.5 kmh 29.18 in988.1 mb 0.01 in0.3 mm 0.00 in0.0 mm 0.29 in7.4 mm
06:45 AM 38.3°F3.5°C 36.5°F2.5°C 93% 6.0 mph SSW9.7 kmh SSW 16.0 mph25.7 kmh 29.18 in988.1 mb 0.02 in0.5 mm 0.04 in1.0 mm 0.29 in7.4 mm
06:30 AM 38.5°F3.6°C 36.9°F2.7°C 94% 6.0 mph SSW9.7 kmh SSW 15.0 mph24.1 kmh 29.18 in988.1 mb 0.01 in0.3 mm 0.00 in0.0 mm 0.28 in7.1 mm
06:15 AM 38.7°F3.7°C 37.1°F2.8°C 94% 6.0 mph SW9.7 kmh SW 12.0 mph19.3 kmh 29.18 in988.1 mb 0.01 in0.3 mm 0.00 in0.0 mm 0.28 in7.1 mm
06:00 AM 38.8°F3.8°C 37.3°F2.9°C 94% 6.0 mph SW9.7 kmh SW 17.0 mph27.4 kmh 29.17 in987.8 mb 0.03 in0.8 mm 0.00 in0.0 mm 0.28 in7.1 mm
05:45 AM 38.8°F3.8°C 37.3°F2.9°C 94% 7.0 mph WSW11.3 kmh WSW 15.0 mph24.1 kmh 29.18 in988.1 mb 0.05 in1.3 mm 0.00 in0.0 mm 0.27 in6.9 mm
05:30 AM 38.5°F3.6°C 36.9°F2.7°C 94% 6.0 mph WSW9.7 kmh WSW 17.0 mph27.4 kmh 29.17 in987.8 mb 0.07 in1.8 mm 0.00 in0.0 mm 0.27 in6.9 mm
05:15 AM 37.4°F3.0°C 35.8°F2.1°C 94% 5.0 mph SSW8.0 kmh SSW 11.0 mph17.7 kmh 29.17 in987.8 mb 0.08 in2.0 mm 0.04 in1.0 mm 0.27 in6.9 mm
05:00 AM 37.2°F2.9°C 35.7°F2.1°C 94% 4.0 mph SW6.4 kmh SW 9.0 mph14.5 kmh 29.17 in987.8 mb 0.07 in1.8 mm 0.00 in0.0 mm 0.25 in6.4 mm
04:45 AM 37.0°F2.8°C 35.2°F1.8°C 93% 7.0 mph WSW11.3 kmh WSW 15.0 mph24.1 kmh 29.18 in988.1 mb 0.07 in1.8 mm 0.08 in2.0 mm 0.22 in5.6 mm
04:30 AM 37.6°F3.1°C 35.7°F2.1°C 93% 6.0 mph SW9.7 kmh SW 15.0 mph24.1 kmh 29.18 in988.1 mb 0.05 in1.3 mm 0.00 in0.0 mm 0.20 in5.1 mm
04:15 AM 37.9°F3.3°C 36.1°F2.3°C 93% 7.0 mph WSW11.3 kmh WSW 15.0 mph24.1 kmh 29.18 in988.1 mb 0.06 in1.5 mm 0.04 in1.0 mm 0.19 in4.8 mm
04:00 AM 39.0°F3.9°C 37.2°F2.9°C 93% 5.0 mph WSW8.0 kmh WSW 14.0 mph22.5 kmh 29.18 in988.1 mb 0.05 in1.3 mm 0.04 in1.0 mm 0.18 in4.6 mm
03:45 AM 39.4°F4.1°C 37.5°F3.1°C 93% 5.0 mph WSW8.0 kmh WSW 11.0 mph17.7 kmh 29.18 in988.1 mb 0.02 in0.5 mm 0.00 in0.0 mm 0.15 in3.8 mm
03:30 AM 39.4°F4.1°C 37.5°F3.1°C 93% 4.0 mph WSW6.4 kmh WSW 12.0 mph19.3 kmh 29.18 in988.1 mb 0.02 in0.5 mm 0.04 in1.0 mm 0.15 in3.8 mm
03:15 AM 39.4°F4.1°C 37.5°F3.1°C 93% 9.0 mph W14.5 kmh W 21.0 mph33.8 kmh 29.18 in988.1 mb 0.01 in0.3 mm 0.00 in0.0 mm 0.13 in3.3 mm
03:00 AM 39.0°F3.9°C 37.4°F3.0°C 94% 7.0 mph WSW11.3 kmh WSW 16.0 mph25.7 kmh 29.18 in988.1 mb 0.01 in0.3 mm 0.00 in0.0 mm 0.13 in3.3 mm
02:45 AM 38.7°F3.7°C 36.8°F2.7°C 93% 4.0 mph WSW6.4 kmh WSW 11.0 mph17.7 kmh 29.18 in988.1 mb 0.02 in0.5 mm 0.00 in0.0 mm 0.13 in3.3 mm
02:30 AM 38.7°F3.7°C 36.8°F2.7°C 93% 5.0 mph WSW8.0 kmh WSW 14.0 mph22.5 kmh 29.18 in988.1 mb 0.03 in0.8 mm 0.00 in0.0 mm 0.13 in3.3 mm
02:15 AM 38.7°F3.7°C 36.8°F2.7°C 93% 10.0 mph W16.1 kmh W 18.0 mph29.0 kmh 29.18 in988.1 mb 0.06 in1.5 mm 0.00 in0.0 mm 0.12 in3.0 mm
02:00 AM 38.8°F3.8°C 37.3°F2.9°C 94% 9.0 mph W14.5 kmh W 20.0 mph32.2 kmh 29.18 in988.1 mb 0.08 in2.0 mm 0.00 in0.0 mm 0.12 in3.0 mm
01:45 AM 38.5°F3.6°C 36.9°F2.7°C 94% 7.0 mph WSW11.3 kmh WSW 18.0 mph29.0 kmh 29.16 in987.5 mb 0.08 in2.0 mm 0.00 in0.0 mm 0.11 in2.8 mm
01:30 AM 38.1°F3.4°C 36.5°F2.5°C 94% 8.0 mph W12.9 kmh W 17.0 mph27.4 kmh 29.16 in987.5 mb 0.08 in2.0 mm 0.12 in3.0 mm 0.10 in2.5 mm
01:15 AM 37.9°F3.3°C 36.4°F2.4°C 94% 6.0 mph WSW9.7 kmh WSW 21.0 mph33.8 kmh 29.16 in987.5 mb 0.05 in1.3 mm 0.04 in1.0 mm 0.06 in1.5 mm
01:00 AM 37.2°F2.9°C 35.7°F2.1°C 94% 6.0 mph WSW9.7 kmh WSW 13.0 mph20.9 kmh 29.16 in987.5 mb 0.04 in1.0 mm 0.00 in0.0 mm 0.04 in1.0 mm
12:45 AM 36.7°F2.6°C 34.8°F1.6°C 93% 2.0 mph NW3.2 kmh NW 4.0 mph6.4 kmh 29.16 in987.5 mb 0.04 in1.0 mm 0.00 in0.0 mm 0.03 in0.8 mm
12:30 AM 36.7°F2.6°C 34.8°F1.6°C 93% 2.0 mph WNW3.2 kmh WNW 6.0 mph9.7 kmh 29.16 in987.5 mb 0.04 in1.0 mm 0.04 in1.0 mm 0.02 in0.5 mm
12:15 AM 36.7°F2.6°C 34.6°F1.4°C 92% 5.0 mph NW8.0 kmh NW 10.0 mph16.1 kmh 29.17 in987.8 mb 0.03 in0.8 mm 0.04 in1.0 mm 0.01 in0.3 mm
12:00 AM 36.7°F2.6°C 34.6°F1.4°C 92% 7.0 mph SW11.3 kmh SW 17.0 mph27.4 kmh 29.17 in987.8 mb 0.02 in0.5 mm 0.00 in0.0 mm 0.02 in0.5 mm